createdAt,value
2023-02-04T00:00:00.136Z,17.05
2023-02-04T00:02:26.896Z,12.65
2023-02-04T00:04:53.591Z,13.57
2023-02-04T00:07:20.266Z,17.75
2023-02-04T00:09:47.207Z,17.33
2023-02-04T00:12:14.488Z,13.80
2023-02-04T00:14:41.143Z,14.15
2023-02-04T00:17:10.213Z,15.88
2023-02-04T00:19:37.370Z,12.23
2023-02-04T00:22:04.578Z,13.43
2023-02-04T00:24:31.145Z,14.20
2023-02-04T00:26:57.756Z,11.75
2023-02-04T00:29:24.273Z,11.75
2023-02-04T00:31:50.964Z,11.85
2023-02-04T00:34:18.453Z,11.55
2023-02-04T00:36:45.592Z,16.38
2023-02-04T00:39:12.413Z,12.77
2023-02-04T00:41:39.015Z,16.05
2023-02-04T00:44:05.561Z,15.10
2023-02-04T00:46:32.152Z,13.07
2023-02-04T00:48:58.665Z,15.77
2023-02-04T00:51:25.238Z,14.10
2023-02-04T00:53:51.845Z,18.15
2023-02-04T00:56:18.418Z,12.43
2023-02-04T00:58:45.011Z,12.02
2023-02-04T01:01:11.559Z,12.70
2023-02-04T01:03:38.137Z,15.00
2023-02-04T01:06:04.815Z,11.95
2023-02-04T01:08:31.339Z,12.82
2023-02-04T01:10:57.909Z,16.60
2023-02-04T01:13:24.407Z,13.10
2023-02-04T01:15:50.949Z,13.75
2023-02-04T01:18:17.477Z,12.35
2023-02-04T01:20:44.043Z,17.48
2023-02-04T01:23:10.644Z,14.65
2023-02-04T01:25:37.172Z,13.93
2023-02-04T01:28:03.896Z,11.23
2023-02-04T01:30:30.902Z,11.95
2023-02-04T01:32:57.621Z,14.82
2023-02-04T01:35:24.898Z,13.57
2023-02-04T01:37:51.412Z,11.07
2023-02-04T01:40:18.244Z,12.68
2023-02-04T01:42:44.936Z,12.43
2023-02-04T01:45:11.804Z,15.60
2023-02-04T01:47:39.365Z,12.20
2023-02-04T01:50:06.976Z,13.73
2023-02-04T01:52:38.101Z,9.27
2023-02-04T01:55:06.325Z,12.38
2023-02-04T01:57:34.203Z,15.43
2023-02-04T02:00:00.796Z,15.70
2023-02-04T02:02:42.483Z,16.50
2023-02-04T02:05:18.936Z,12.38
2023-02-04T02:07:45.529Z,16.30
2023-02-04T02:10:13.253Z,13.43
2023-02-04T02:12:40.807Z,13.88
2023-02-04T02:15:08.347Z,15.38
2023-02-04T02:17:35.704Z,16.20
2023-02-04T02:20:02.543Z,16.10
2023-02-04T02:22:36.362Z,13.45
2023-02-04T02:25:09.621Z,15.18
2023-02-04T02:27:36.404Z,13.02
2023-02-04T02:30:03.628Z,12.30
2023-02-04T02:32:30.367Z,13.95
2023-02-04T02:34:56.980Z,16.05
2023-02-04T02:37:24.011Z,11.38
2023-02-04T02:39:50.629Z,14.15
2023-02-04T02:42:19.689Z,13.75
2023-02-04T02:44:47.724Z,19.95
2023-02-04T02:47:16.686Z,16.25
2023-02-04T02:49:43.895Z,17.95
2023-02-04T02:52:12.837Z,19.70
2023-02-04T02:54:40.395Z,16.65
2023-02-04T02:57:23.568Z,12.10
2023-02-04T02:59:50.190Z,14.30
2023-02-04T03:02:23.940Z,13.45
2023-02-04T03:04:57.458Z,15.00
2023-02-04T03:07:24.420Z,16.02
2023-02-04T03:09:53.461Z,13.93
2023-02-04T03:12:20.590Z,20.02
2023-02-04T03:14:47.291Z,17.33
2023-02-04T03:17:13.889Z,14.68
2023-02-04T03:19:40.809Z,16.20
2023-02-04T03:22:08.267Z,17.48
2023-02-04T03:24:37.728Z,12.65
2023-02-04T03:27:04.452Z,20.95
2023-02-04T03:29:31.097Z,16.80
2023-02-04T03:31:59.944Z,16.73
2023-02-04T03:34:26.723Z,16.48
2023-02-04T03:36:53.386Z,16.83
2023-02-04T03:39:19.890Z,22.42
2023-02-04T03:41:46.392Z,14.73
2023-02-04T03:44:12.984Z,15.25
2023-02-04T03:46:39.564Z,17.30
2023-02-04T03:49:06.163Z,20.88
2023-02-04T03:51:32.789Z,14.75
2023-02-04T03:53:59.319Z,17.85
2023-02-04T03:56:25.927Z,15.15
2023-02-04T03:58:52.502Z,20.13
2023-02-04T04:01:19.204Z,15.90
2023-02-04T04:03:45.767Z,23.45
2023-02-04T04:06:12.384Z,16.08
2023-02-04T04:08:39.279Z,20.80
2023-02-04T04:11:05.936Z,17.95
2023-02-04T04:13:32.493Z,18.45
2023-02-04T04:15:59.168Z,19.48
2023-02-04T04:18:25.784Z,15.45
2023-02-04T04:20:52.355Z,23.58
2023-02-04T04:23:18.923Z,16.98
2023-02-04T04:25:45.416Z,22.77
2023-02-04T04:28:12.077Z,23.10
2023-02-04T04:30:38.749Z,20.27
2023-02-04T04:33:05.894Z,19.25
2023-02-04T04:35:32.669Z,23.90
2023-02-04T04:37:59.298Z,17.05
2023-02-04T04:40:25.826Z,24.90
2023-02-04T04:42:52.527Z,18.90
2023-02-04T04:45:19.792Z,19.23
2023-02-04T04:47:46.328Z,20.80
2023-02-04T04:50:13.135Z,19.90
2023-02-04T04:52:39.695Z,17.05
2023-02-04T04:55:06.703Z,27.67
2023-02-04T04:57:33.291Z,19.52
2023-02-04T04:59:59.853Z,22.27
2023-02-04T05:02:26.431Z,25.75
2023-02-04T05:04:53.067Z,17.88
2023-02-04T05:07:19.620Z,16.13
2023-02-04T05:09:46.119Z,21.85
2023-02-04T05:12:12.794Z,18.73
2023-02-04T05:14:39.305Z,20.65
2023-02-04T05:17:05.823Z,17.40
2023-02-04T05:19:32.366Z,35.92
2023-02-04T05:22:01.521Z,44.75
2023-02-04T05:24:28.544Z,29.58
2023-02-04T05:26:55.047Z,16.80
2023-02-04T05:29:21.710Z,24.77
2023-02-04T05:31:48.307Z,15.73
2023-02-04T05:34:14.864Z,21.98
2023-02-04T05:36:41.488Z,17.00
2023-02-04T05:39:08.046Z,16.75
2023-02-04T05:41:34.631Z,23.30
2023-02-04T05:44:01.140Z,25.50
2023-02-04T05:46:27.692Z,22.52
2023-02-04T05:48:54.207Z,20.02
2023-02-04T05:51:20.775Z,20.95
2023-02-04T05:53:47.393Z,16.77
2023-02-04T05:56:14.178Z,19.63
2023-02-04T05:58:40.797Z,17.13
2023-02-04T06:01:07.410Z,17.35
2023-02-04T06:03:34.042Z,20.27
2023-02-04T06:06:00.611Z,21.80
2023-02-04T06:08:27.151Z,28.38
2023-02-04T06:10:53.708Z,19.92
2023-02-04T06:13:20.261Z,18.63
2023-02-04T06:15:46.823Z,29.33
2023-02-04T06:18:13.940Z,23.58
2023-02-04T06:20:40.508Z,24.17
2023-02-04T06:23:07.080Z,24.13
2023-02-04T06:25:33.672Z,24.85
2023-02-04T06:28:00.260Z,25.45
2023-02-04T06:30:26.955Z,22.15
2023-02-04T06:32:53.552Z,23.92
2023-02-04T06:35:20.150Z,20.95
2023-02-04T06:37:47.360Z,20.48
2023-02-04T06:40:13.921Z,25.23
2023-02-04T06:42:40.435Z,22.35
2023-02-04T06:45:07.516Z,35.20
2023-02-04T06:47:34.099Z,25.20
2023-02-04T06:50:00.609Z,25.60
2023-02-04T06:52:27.129Z,74.68
2023-02-04T06:54:53.652Z,25.83
2023-02-04T06:57:20.229Z,24.20
2023-02-04T06:59:47.122Z,38.28
2023-02-04T07:02:14.165Z,23.75
2023-02-04T07:04:43.603Z,26.63
2023-02-04T07:07:11.110Z,24.58
2023-02-04T07:09:37.723Z,21.15
2023-02-04T07:12:04.750Z,23.15
2023-02-04T07:14:31.274Z,31.98
2023-02-04T07:16:58.498Z,23.70
2023-02-04T07:19:25.766Z,25.15
2023-02-04T07:21:54.283Z,21.48
2023-02-04T07:24:21.105Z,20.77
2023-02-04T07:26:47.643Z,23.58
2023-02-04T07:29:20.669Z,28.40
2023-02-04T07:31:52.735Z,22.00
2023-02-04T07:34:19.932Z,21.27
2023-02-04T07:36:46.637Z,21.23
2023-02-04T07:39:13.268Z,21.13
2023-02-04T07:41:39.804Z,18.83
2023-02-04T07:44:06.363Z,22.15
2023-02-04T07:46:32.953Z,21.95
2023-02-04T07:48:59.677Z,27.67
2023-02-04T07:51:27.854Z,23.00
2023-02-04T07:53:55.682Z,21.98
2023-02-04T07:56:22.195Z,23.80
2023-02-04T07:58:48.813Z,19.45
2023-02-04T08:01:15.455Z,23.55
2023-02-04T08:03:42.641Z,20.92
2023-02-04T08:06:09.674Z,22.05
2023-02-04T08:08:36.342Z,25.00
2023-02-04T08:11:02.915Z,21.13
2023-02-04T08:13:29.496Z,18.40
2023-02-04T08:15:56.147Z,29.58
2023-02-04T08:18:24.908Z,29.50
2023-02-04T08:20:51.932Z,20.75
2023-02-04T08:23:18.645Z,19.60
2023-02-04T08:25:45.515Z,22.23
2023-02-04T08:28:12.229Z,24.00
2023-02-04T08:30:38.836Z,18.77
2023-02-04T08:33:05.451Z,22.70
2023-02-04T08:35:32.146Z,25.67
2023-02-04T08:37:58.673Z,19.73
2023-02-04T08:40:25.226Z,23.00
2023-02-04T08:42:51.807Z,23.70
2023-02-04T08:45:18.499Z,24.60
2023-02-04T08:47:45.172Z,29.00
2023-02-04T08:50:11.905Z,25.05
2023-02-04T08:52:38.480Z,24.00
2023-02-04T08:55:05.558Z,23.67
2023-02-04T08:57:32.416Z,27.45
2023-02-04T08:59:59.020Z,23.05
2023-02-04T09:02:25.594Z,18.67
2023-02-04T09:04:52.384Z,21.42
2023-02-04T09:07:19.017Z,23.95
2023-02-04T09:09:45.535Z,20.98
2023-02-04T09:12:12.055Z,18.02
2023-02-04T09:14:38.605Z,18.30
2023-02-04T09:17:05.709Z,24.48
2023-02-04T09:19:32.238Z,19.67
2023-02-04T09:21:58.764Z,21.45
2023-02-04T09:24:25.334Z,19.13
2023-02-04T09:26:51.880Z,19.75
2023-02-04T09:29:18.486Z,19.77
2023-02-04T09:31:45.065Z,18.55
2023-02-04T09:34:11.832Z,18.48
2023-02-04T09:36:39.338Z,16.75
2023-02-04T09:39:07.299Z,21.15
2023-02-04T09:41:34.824Z,22.95
2023-02-04T09:44:04.204Z,31.05
2023-02-04T09:46:32.885Z,29.08
2023-02-04T09:49:00.039Z,36.75
2023-02-04T09:51:30.255Z,20.83
2023-02-04T09:54:18.602Z,24.80
2023-02-04T09:56:45.614Z,20.02
2023-02-04T09:59:14.123Z,23.40
2023-02-04T10:01:41.139Z,17.02
2023-02-04T10:04:14.245Z,21.88
2023-02-04T10:06:44.571Z,18.23
2023-02-04T10:09:12.445Z,19.05
2023-02-04T10:11:41.657Z,16.02
2023-02-04T10:14:14.894Z,15.85
2023-02-04T10:16:43.549Z,12.82
2023-02-04T10:19:15.302Z,16.33
2023-02-04T10:21:47.265Z,13.93
2023-02-04T10:24:16.332Z,15.00
2023-02-04T10:26:43.057Z,15.18
2023-02-04T10:29:15.891Z,15.68
2023-02-04T10:31:45.675Z,13.88
2023-02-04T10:34:20.333Z,15.15
2023-02-04T10:36:57.998Z,11.93
2023-02-04T10:39:30.036Z,16.73
2023-02-04T10:41:59.261Z,14.80
2023-02-04T10:44:36.001Z,12.95
2023-02-04T10:47:23.338Z,14.85
2023-02-04T10:50:05.606Z,18.02
2023-02-04T10:52:38.007Z,12.73
2023-02-04T10:55:07.159Z,9.70
2023-02-04T10:57:38.110Z,12.90
2023-02-04T11:00:07.378Z,12.77
2023-02-04T11:02:42.122Z,10.27
2023-02-04T11:05:15.900Z,14.85
2023-02-04T11:07:43.140Z,7.28
2023-02-04T11:10:17.749Z,12.13
2023-02-04T11:13:01.433Z,14.48
2023-02-04T11:15:50.866Z,16.80
2023-02-04T11:18:20.645Z,14.00
2023-02-04T11:20:52.091Z,15.13
2023-02-04T11:23:30.016Z,14.57
2023-02-04T11:26:09.155Z,12.35
2023-02-04T11:29:00.418Z,10.70
2023-02-04T11:31:38.877Z,15.40
2023-02-04T11:34:19.239Z,14.10
2023-02-04T11:37:01.064Z,13.07
2023-02-04T11:39:42.191Z,13.02
2023-02-04T11:42:28.926Z,13.05
2023-02-04T11:45:01.352Z,14.63
2023-02-04T11:47:33.975Z,14.43
2023-02-04T11:50:04.842Z,15.05
2023-02-04T11:52:35.779Z,11.23
2023-02-04T11:55:02.453Z,13.07
2023-02-04T11:57:29.148Z,15.45
2023-02-04T11:59:55.787Z,14.65
2023-02-04T12:02:25.942Z,11.68
2023-02-04T12:04:57.987Z,12.35
2023-02-04T12:07:29.770Z,11.15
2023-02-04T12:09:57.687Z,11.07
2023-02-04T12:12:30.230Z,11.48
2023-02-04T12:15:18.462Z,13.25
2023-02-04T12:17:46.059Z,13.52
2023-02-04T12:20:13.964Z,10.77
2023-02-04T12:22:40.590Z,14.98
2023-02-04T12:25:07.713Z,13.43
2023-02-04T12:27:34.237Z,10.88
2023-02-04T12:30:00.813Z,15.60
2023-02-04T12:32:27.460Z,10.57
2023-02-04T12:34:54.035Z,11.13
2023-02-04T12:37:20.574Z,11.45
2023-02-04T12:39:47.087Z,11.07
2023-02-04T12:42:13.656Z,11.57
2023-02-04T12:44:40.274Z,12.77
2023-02-04T12:47:06.812Z,12.60
2023-02-04T12:49:33.344Z,11.80
2023-02-04T12:52:02.145Z,11.50
2023-02-04T12:54:28.764Z,12.95
2023-02-04T12:56:58.062Z,10.77
2023-02-04T12:59:25.425Z,11.60
2023-02-04T13:01:52.217Z,10.75
2023-02-04T13:04:18.775Z,13.23
2023-02-04T13:06:45.334Z,13.82
2023-02-04T13:09:11.890Z,10.48
2023-02-04T13:11:38.561Z,10.18
2023-02-04T13:14:05.133Z,11.70
2023-02-04T13:16:31.770Z,10.57
2023-02-04T13:18:58.356Z,12.02
2023-02-04T13:21:24.885Z,13.05
2023-02-04T13:23:51.436Z,10.20
2023-02-04T13:26:18.109Z,13.90
2023-02-04T13:28:44.690Z,11.20
2023-02-04T13:31:11.257Z,13.43
2023-02-04T13:33:37.801Z,11.90
2023-02-04T13:36:04.950Z,11.45
2023-02-04T13:38:31.830Z,14.25
2023-02-04T13:40:58.346Z,14.35
2023-02-04T13:43:24.936Z,10.68
2023-02-04T13:45:51.592Z,15.50
2023-02-04T13:48:18.556Z,7.97
2023-02-04T13:50:45.142Z,11.88
2023-02-04T13:53:11.696Z,11.18
2023-02-04T13:55:38.357Z,5.80
2023-02-04T13:58:05.130Z,13.35
2023-02-04T14:00:32.165Z,14.82
2023-02-04T14:02:59.116Z,11.23
2023-02-04T14:05:25.665Z,12.63
2023-02-04T14:07:52.336Z,13.75
2023-02-04T14:10:19.543Z,11.65
2023-02-04T14:12:46.100Z,13.85
2023-02-04T14:15:12.652Z,9.90
2023-02-04T14:17:39.270Z,9.82
2023-02-04T14:20:06.253Z,12.57
2023-02-04T14:22:32.853Z,10.48
2023-02-04T14:24:59.393Z,16.67
2023-02-04T14:27:25.962Z,13.77
2023-02-04T14:29:52.705Z,8.93
2023-02-04T14:32:20.837Z,12.50
2023-02-04T14:34:47.423Z,13.68
2023-02-04T14:37:14.017Z,7.95
2023-02-04T14:39:40.566Z,10.43
2023-02-04T14:42:07.189Z,15.77
2023-02-04T14:44:33.850Z,11.55
2023-02-04T14:47:00.395Z,12.90
2023-02-04T14:49:26.914Z,11.65
2023-02-04T14:51:53.446Z,9.55
2023-02-04T14:54:20.041Z,10.55
2023-02-04T14:56:47.726Z,10.63
2023-02-04T14:59:14.304Z,10.10
2023-02-04T15:01:42.224Z,12.57
2023-02-04T15:04:10.143Z,10.35
2023-02-04T15:06:38.283Z,7.05
2023-02-04T15:09:04.802Z,7.95
2023-02-04T15:11:32.121Z,10.02
2023-02-04T15:13:58.623Z,11.50
2023-02-04T15:16:25.301Z,10.88
2023-02-04T15:18:52.021Z,9.57
2023-02-04T15:21:18.645Z,13.20
2023-02-04T15:23:47.173Z,10.90
2023-02-04T15:26:14.464Z,6.65
2023-02-04T15:28:41.159Z,9.95
2023-02-04T15:31:07.752Z,12.25
2023-02-04T15:33:34.423Z,13.23
2023-02-04T15:36:00.942Z,9.18
2023-02-04T15:38:27.532Z,13.55
2023-02-04T15:40:54.067Z,11.27
2023-02-04T15:43:20.662Z,14.68
2023-02-04T15:45:47.305Z,10.50
2023-02-04T15:48:14.001Z,13.00
2023-02-04T15:50:40.661Z,14.40
2023-02-04T15:53:07.289Z,9.82
2023-02-04T15:55:34.255Z,8.98
2023-02-04T15:58:00.836Z,14.52
2023-02-04T16:00:27.414Z,9.23
2023-02-04T16:02:53.996Z,8.98
2023-02-04T16:05:20.572Z,11.18
2023-02-04T16:07:47.301Z,12.43
2023-02-04T16:10:13.891Z,11.07
2023-02-04T16:12:40.502Z,9.10
2023-02-04T16:15:07.454Z,9.57
2023-02-04T16:17:34.043Z,8.30
2023-02-04T16:20:01.586Z,7.13
2023-02-04T16:22:28.205Z,10.75
2023-02-04T16:24:55.055Z,7.72
2023-02-04T16:27:21.711Z,11.95
2023-02-04T16:29:48.660Z,13.38
2023-02-04T16:32:16.194Z,11.98
2023-02-04T16:34:42.923Z,11.82
2023-02-04T16:37:09.427Z,8.40
2023-02-04T16:39:38.865Z,13.32
2023-02-04T16:42:09.828Z,11.80
2023-02-04T16:44:37.306Z,10.60
2023-02-04T16:47:07.767Z,9.48
2023-02-04T16:49:34.880Z,8.52
2023-02-04T16:52:04.337Z,9.25
2023-02-04T16:54:36.854Z,6.03
2023-02-04T16:57:03.800Z,8.48
2023-02-04T16:59:31.965Z,8.77
2023-02-04T17:02:00.389Z,6.95
2023-02-04T17:04:27.564Z,9.35
2023-02-04T17:06:54.260Z,8.38
2023-02-04T17:09:20.817Z,7.60
2023-02-04T17:11:47.517Z,8.13
2023-02-04T17:14:18.665Z,13.48
2023-02-04T17:16:47.078Z,13.27
2023-02-04T17:19:15.815Z,12.48
2023-02-04T17:21:42.372Z,15.75
2023-02-04T17:24:09.920Z,18.33
2023-02-04T17:26:38.165Z,13.85
2023-02-04T17:29:10.077Z,13.43
2023-02-04T17:31:37.504Z,13.20
2023-02-04T17:34:04.684Z,11.32
2023-02-04T17:36:32.471Z,11.57
2023-02-04T17:38:59.323Z,9.43
2023-02-04T17:41:26.128Z,13.77
2023-02-04T17:43:52.981Z,13.05
2023-02-04T17:46:19.937Z,11.75
2023-02-04T17:48:46.596Z,12.43
2023-02-04T17:51:13.664Z,13.85
2023-02-04T17:53:40.498Z,16.77
2023-02-04T17:56:12.129Z,17.50
2023-02-04T17:58:39.329Z,15.68
2023-02-04T18:01:14.296Z,16.27
2023-02-04T18:03:42.681Z,15.02
2023-02-04T18:06:19.095Z,25.42
2023-02-04T18:08:45.653Z,22.17
2023-02-04T18:11:27.343Z,19.63
2023-02-04T18:13:59.387Z,18.40
2023-02-04T18:16:31.549Z,15.65
2023-02-04T18:19:19.734Z,14.95
2023-02-04T18:21:47.803Z,17.30
2023-02-04T18:24:17.198Z,18.08
2023-02-04T18:26:56.459Z,15.65
2023-02-04T18:29:37.305Z,13.00
2023-02-04T18:32:17.578Z,11.98
2023-02-04T18:34:46.856Z,12.40
2023-02-04T18:37:33.108Z,10.70
2023-02-04T18:40:08.968Z,12.45
2023-02-04T18:42:44.083Z,13.55
2023-02-04T18:47:55.699Z,11.52
2023-02-04T18:50:28.020Z,11.15
2023-02-04T18:52:54.763Z,14.15
2023-02-04T18:55:34.662Z,14.63
2023-02-04T18:58:16.976Z,12.48
2023-02-04T19:00:48.984Z,15.00
2023-02-04T19:03:27.885Z,14.48
2023-02-04T19:05:58.066Z,15.15
2023-02-04T19:08:24.605Z,13.00
2023-02-04T19:10:52.544Z,16.60
2023-02-04T19:13:20.983Z,15.13
2023-02-04T19:16:14.702Z,11.30
2023-02-04T19:18:44.557Z,12.98
2023-02-04T19:21:33.842Z,13.90
2023-02-04T19:24:20.628Z,13.32
2023-02-04T19:26:53.898Z,13.07
2023-02-04T19:29:29.360Z,12.48
2023-02-04T19:31:59.743Z,10.75
2023-02-04T19:34:32.296Z,14.60
2023-02-04T19:36:59.349Z,12.63
2023-02-04T19:39:36.247Z,14.30
2023-02-04T19:42:20.156Z,10.82
2023-02-04T19:44:47.185Z,14.65
2023-02-04T19:47:27.362Z,14.35
2023-02-04T19:50:21.732Z,20.25
2023-02-04T19:52:52.303Z,19.15
2023-02-04T19:55:48.041Z,17.13
2023-02-04T19:58:23.239Z,15.52
2023-02-04T20:01:03.973Z,16.52
2023-02-04T20:03:42.547Z,15.15
2023-02-04T20:06:29.995Z,13.60
2023-02-04T20:09:01.937Z,12.52
2023-02-04T20:11:32.878Z,11.52
2023-02-04T20:14:14.651Z,12.00
2023-02-04T20:16:51.451Z,11.27
2023-02-04T20:19:19.390Z,12.77
2023-02-04T20:22:21.950Z,16.55
2023-02-04T20:24:51.175Z,16.75
2023-02-04T20:27:17.690Z,20.25
2023-02-04T20:29:44.410Z,17.67
2023-02-04T20:32:25.978Z,29.27
2023-02-04T20:35:07.563Z,28.88
2023-02-04T20:37:34.487Z,20.70
2023-02-04T20:40:13.440Z,20.00
2023-02-04T20:42:52.659Z,26.58
2023-02-04T20:45:27.748Z,24.02
2023-02-04T20:50:36.150Z,21.02
2023-02-04T20:53:08.205Z,19.15
2023-02-04T20:55:35.661Z,21.23
2023-02-04T20:58:08.820Z,16.98
2023-02-04T21:00:35.372Z,19.55
2023-02-04T21:03:33.346Z,20.50
2023-02-04T21:06:01.371Z,18.05
2023-02-04T21:08:42.316Z,18.52
2023-02-04T21:11:09.496Z,16.42
2023-02-04T21:13:38.433Z,28.70
2023-02-04T21:16:05.907Z,27.33
2023-02-04T21:18:34.562Z,27.95
2023-02-04T21:21:03.174Z,27.60
2023-02-04T21:23:29.813Z,29.45
2023-02-04T21:25:56.474Z,23.02
2023-02-04T21:28:23.218Z,18.95
2023-02-04T21:30:49.848Z,19.45
2023-02-04T21:33:17.174Z,20.80
2023-02-04T21:35:43.902Z,15.75
2023-02-04T21:38:10.555Z,20.13
2023-02-04T21:40:38.467Z,21.38
2023-02-04T21:43:07.906Z,19.30
2023-02-04T21:45:37.080Z,14.98
2023-02-04T21:48:04.575Z,19.25
2023-02-04T21:50:32.802Z,15.95
2023-02-04T21:52:59.373Z,20.27
2023-02-04T21:55:26.157Z,16.38
2023-02-04T21:57:53.139Z,24.38
2023-02-04T22:00:24.849Z,20.45
2023-02-04T22:02:52.674Z,20.55
2023-02-04T22:05:21.016Z,18.95
2023-02-04T22:07:48.059Z,17.88
2023-02-04T22:10:20.429Z,17.27
2023-02-04T22:12:47.288Z,14.90
2023-02-04T22:15:14.604Z,20.48
2023-02-04T22:17:41.527Z,16.42
2023-02-04T22:20:09.115Z,16.13
2023-02-04T22:22:35.756Z,14.43
2023-02-04T22:25:02.310Z,16.10
2023-02-04T22:27:28.812Z,16.80
2023-02-04T22:29:56.826Z,14.95
2023-02-04T22:32:24.049Z,17.60
2023-02-04T22:34:50.619Z,16.27
2023-02-04T22:37:17.177Z,15.65
2023-02-04T22:39:43.867Z,16.00
2023-02-04T22:42:10.385Z,14.63
2023-02-04T22:44:36.967Z,15.50
2023-02-04T22:47:03.525Z,14.82
2023-02-04T22:49:32.451Z,13.95
2023-02-04T22:52:03.065Z,12.55
2023-02-04T22:54:30.049Z,15.38
2023-02-04T22:57:00.375Z,13.25
2023-02-04T22:59:27.853Z,15.88
2023-02-04T23:01:55.164Z,15.27
2023-02-04T23:04:22.094Z,19.05
2023-02-04T23:06:49.547Z,14.73
2023-02-04T23:09:16.481Z,13.27
2023-02-04T23:11:43.375Z,15.38
2023-02-04T23:14:10.098Z,13.02
2023-02-04T23:16:36.678Z,13.00
2023-02-04T23:19:03.982Z,11.55
2023-02-04T23:21:31.340Z,16.13
2023-02-04T23:23:58.204Z,15.73
2023-02-04T23:26:24.847Z,13.63
2023-02-04T23:28:51.409Z,12.55
2023-02-04T23:31:17.972Z,11.82
2023-02-04T23:33:44.513Z,13.75
2023-02-04T23:36:11.403Z,12.15
2023-02-04T23:38:37.937Z,12.27
2023-02-04T23:41:04.559Z,10.02
2023-02-04T23:43:31.144Z,11.52
2023-02-04T23:45:59.824Z,12.73
2023-02-04T23:48:26.537Z,9.80
2023-02-04T23:50:56.680Z,9.48
2023-02-04T23:53:23.537Z,11.20
2023-02-04T23:55:51.233Z,9.80
2023-02-04T23:58:17.876Z,12.18
